createdAt,value
2022-08-30T00:00:32.236Z,70.59
2022-08-30T00:01:32.220Z,69.06
2022-08-30T00:02:32.288Z,70.28
2022-08-30T00:03:32.392Z,67.33
2022-08-30T00:04:32.188Z,66.93
2022-08-30T00:05:32.174Z,67.24
2022-08-30T00:06:32.516Z,68.79
2022-08-30T00:07:32.154Z,66.83
2022-08-30T00:08:32.140Z,66.22
2022-08-30T00:09:32.131Z,70.62
2022-08-30T00:10:32.119Z,68.89
2022-08-30T00:11:32.109Z,69.30
2022-08-30T00:12:32.097Z,67.27
2022-08-30T00:13:32.393Z,65.84
2022-08-30T00:14:32.076Z,66.15
2022-08-30T00:15:32.168Z,64.83
2022-08-30T00:16:32.056Z,66.15
2022-08-30T00:17:32.046Z,68.08
2022-08-30T00:18:32.031Z,69.64
2022-08-30T00:19:32.278Z,67.19
2022-08-30T00:20:32.060Z,64.96
2022-08-30T00:21:31.999Z,65.88
2022-08-30T00:22:31.989Z,65.06
2022-08-30T00:23:31.988Z,64.25
2022-08-30T00:24:31.994Z,65.16
2022-08-30T00:25:31.972Z,65.06
2022-08-30T00:26:31.965Z,66.61
2022-08-30T00:27:31.937Z,63.26
2022-08-30T00:28:31.933Z,62.41
2022-08-30T00:29:31.916Z,62.55
2022-08-30T00:30:31.903Z,60.28
2022-08-30T00:31:31.973Z,61.53
2022-08-30T00:32:31.883Z,60.41
2022-08-30T00:33:31.871Z,62.55
2022-08-30T00:34:31.860Z,64.28
2022-08-30T00:35:31.853Z,61.74
2022-08-30T00:36:31.842Z,61.43
2022-08-30T00:37:31.828Z,60.52
2022-08-30T00:38:31.819Z,60.82
2022-08-30T00:39:31.805Z,60.61
2022-08-30T00:40:31.870Z,64.69
2022-08-30T00:41:31.787Z,62.45
2022-08-30T00:42:31.771Z,61.13
2022-08-30T00:43:31.763Z,61.02
2022-08-30T00:44:31.751Z,61.36
2022-08-30T00:45:31.742Z,61.66
2022-08-30T00:46:31.770Z,60.34
2022-08-30T00:47:31.718Z,61.46
2022-08-30T00:48:31.706Z,59.93
2022-08-30T00:49:31.695Z,59.22
2022-08-30T00:50:31.690Z,59.53
2022-08-30T00:51:31.672Z,61.66
2022-08-30T00:52:31.762Z,61.08
2022-08-30T00:53:31.650Z,62.30
2022-08-30T00:54:31.639Z,59.55
2022-08-30T00:55:31.714Z,61.49
2022-08-30T00:56:31.628Z,59.45
2022-08-30T00:57:31.626Z,59.05
2022-08-30T00:58:31.632Z,57.82
2022-08-30T00:59:31.616Z,59.14
2022-08-30T01:00:31.574Z,57.52
2022-08-30T01:01:31.917Z,58.13
2022-08-30T01:02:31.614Z,58.23
2022-08-30T01:03:31.544Z,57.21
2022-08-30T01:04:31.533Z,56.81
2022-08-30T01:05:31.520Z,59.75
2022-08-30T01:06:32.766Z,57.11
2022-08-30T01:07:31.499Z,60.06
2022-08-30T01:08:31.485Z,58.84
2022-08-30T01:09:31.478Z,58.74
2022-08-30T01:10:31.491Z,61.99
2022-08-30T01:11:31.454Z,59.78
2022-08-30T01:12:31.443Z,58.44
2022-08-30T01:13:31.432Z,57.11
2022-08-30T01:14:31.420Z,58.56
2022-08-30T01:15:31.447Z,58.67
2022-08-30T01:16:31.396Z,57.34
2022-08-30T01:17:31.390Z,55.48
2022-08-30T01:18:31.381Z,54.97
2022-08-30T01:19:31.392Z,54.97
2022-08-30T01:20:31.353Z,57.75
2022-08-30T01:21:31.345Z,56.83
2022-08-30T01:22:31.330Z,56.32
2022-08-30T01:23:31.320Z,57.14
2022-08-30T01:24:31.312Z,57.14
2022-08-30T01:25:31.302Z,56.73
2022-08-30T01:26:31.288Z,56.63
2022-08-30T01:27:31.277Z,56.02
2022-08-30T01:28:31.266Z,58.56
2022-08-30T01:29:31.256Z,57.14
2022-08-30T01:30:31.278Z,59.10
2022-08-30T01:31:31.237Z,58.28
2022-08-30T01:32:31.220Z,61.14
2022-08-30T01:33:31.210Z,57.98
2022-08-30T01:34:31.199Z,57.57
2022-08-30T01:35:31.188Z,58.80
2022-08-30T01:36:31.176Z,58.28
2022-08-30T01:37:31.165Z,56.15
2022-08-30T01:38:31.158Z,57.26
2022-08-30T01:39:31.143Z,57.80
2022-08-30T01:40:31.238Z,57.80
2022-08-30T01:41:31.123Z,56.78
2022-08-30T01:42:31.108Z,56.88
2022-08-30T01:43:31.113Z,55.43
2022-08-30T01:44:31.091Z,56.07
2022-08-30T01:45:31.079Z,58.62
2022-08-30T01:46:31.116Z,58.41
2022-08-30T01:47:31.055Z,58.11
2022-08-30T01:48:31.375Z,57.50
2022-08-30T01:49:31.034Z,57.62
2022-08-30T01:50:31.021Z,57.32
2022-08-30T01:51:31.009Z,58.85
2022-08-30T01:52:30.999Z,57.90
2022-08-30T01:53:30.987Z,55.56
2022-08-30T01:54:36.591Z,54.36
2022-08-30T01:55:30.966Z,54.13
2022-08-30T01:56:30.952Z,55.05
2022-08-30T01:57:30.943Z,56.81
2022-08-30T01:58:30.942Z,56.60
2022-08-30T01:59:30.938Z,58.14
2022-08-30T02:00:30.907Z,57.83
2022-08-30T02:01:32.438Z,56.91
2022-08-30T02:02:30.884Z,57.42
2022-08-30T02:03:30.906Z,55.18
2022-08-30T02:04:30.862Z,54.16
2022-08-30T02:05:30.853Z,53.85
2022-08-30T02:06:30.839Z,54.05
2022-08-30T02:07:30.833Z,54.16
2022-08-30T02:08:30.819Z,53.14
2022-08-30T02:09:30.808Z,53.24
2022-08-30T02:10:30.796Z,54.57
2022-08-30T02:11:30.790Z,55.89
2022-08-30T02:12:30.776Z,54.26
2022-08-30T02:13:30.769Z,54.57
2022-08-30T02:14:30.753Z,53.34
2022-08-30T02:15:30.741Z,53.14
2022-08-30T02:16:30.790Z,52.93
2022-08-30T02:17:30.719Z,53.24
2022-08-30T02:18:30.706Z,54.39
2022-08-30T02:19:30.698Z,53.57
2022-08-30T02:20:30.684Z,53.24
2022-08-30T02:21:30.678Z,51.30
2022-08-30T02:22:30.663Z,52.01
2022-08-30T02:23:30.654Z,52.55
2022-08-30T02:24:30.641Z,53.27
2022-08-30T02:25:30.630Z,53.57
2022-08-30T02:26:30.619Z,52.34
2022-08-30T02:27:30.612Z,51.61
2022-08-30T02:28:30.599Z,52.65
2022-08-30T02:29:30.584Z,53.06
2022-08-30T02:30:30.636Z,52.25
2022-08-30T02:31:30.562Z,50.61
2022-08-30T02:32:30.549Z,50.89
2022-08-30T02:33:30.539Z,53.06
2022-08-30T02:34:30.527Z,52.65
2022-08-30T02:35:30.518Z,52.65
2022-08-30T02:36:30.505Z,51.93
2022-08-30T02:37:30.494Z,52.14
2022-08-30T02:38:30.482Z,51.53
2022-08-30T02:39:30.473Z,50.92
2022-08-30T02:40:30.497Z,54.28
2022-08-30T02:41:30.452Z,51.53
2022-08-30T02:42:30.437Z,50.71
2022-08-30T02:43:30.427Z,50.31
2022-08-30T02:44:30.426Z,52.34
2022-08-30T02:45:30.407Z,50.41
2022-08-30T02:46:33.281Z,51.53
2022-08-30T02:47:30.384Z,53.19
2022-08-30T02:48:30.372Z,51.96
2022-08-30T02:49:33.723Z,50.10
2022-08-30T02:50:30.347Z,51.63
2022-08-30T02:51:30.338Z,50.10
2022-08-30T02:52:30.325Z,49.29
2022-08-30T02:53:30.317Z,49.69
2022-08-30T02:54:30.306Z,50.10
2022-08-30T02:55:30.304Z,51.96
2022-08-30T02:56:30.280Z,49.82
2022-08-30T02:57:30.270Z,49.41
2022-08-30T02:58:30.259Z,50.31
2022-08-30T02:59:30.249Z,50.10
2022-08-30T03:00:30.236Z,48.47
2022-08-30T03:01:30.262Z,48.57
2022-08-30T03:02:30.214Z,47.96
2022-08-30T03:03:30.233Z,47.04
2022-08-30T03:04:30.195Z,47.75
2022-08-30T03:05:30.182Z,47.14
2022-08-30T03:06:30.203Z,47.24
2022-08-30T03:07:30.157Z,46.63
2022-08-30T03:08:30.149Z,48.36
2022-08-30T03:09:30.134Z,46.63
2022-08-30T03:10:30.127Z,46.83
2022-08-30T03:11:30.111Z,46.53
2022-08-30T03:12:30.101Z,47.96
2022-08-30T03:13:30.091Z,46.12
2022-08-30T03:14:30.077Z,45.81
2022-08-30T03:15:30.066Z,45.49
2022-08-30T03:16:30.179Z,45.49
2022-08-30T03:17:30.047Z,44.98
2022-08-30T03:18:30.033Z,44.67
2022-08-30T03:19:30.022Z,44.98
2022-08-30T03:20:30.015Z,44.46
2022-08-30T03:21:30.023Z,44.06
2022-08-30T03:22:30.042Z,44.37
2022-08-30T03:23:30.052Z,43.65
2022-08-30T03:24:30.114Z,43.63
2022-08-30T03:25:30.080Z,43.44
2022-08-30T03:26:30.088Z,42.92
2022-08-30T03:27:30.101Z,43.12
2022-08-30T03:28:29.922Z,42.71
2022-08-30T03:29:29.911Z,43.43
2022-08-30T03:30:29.899Z,42.41
2022-08-30T03:31:30.047Z,42.51
2022-08-30T03:32:29.881Z,42.51
2022-08-30T03:33:29.867Z,42.30
2022-08-30T03:34:29.855Z,42.21
2022-08-30T03:35:29.845Z,42.51
2022-08-30T03:36:29.833Z,42.41
2022-08-30T03:37:29.825Z,42.41
2022-08-30T03:38:29.811Z,42.41
2022-08-30T03:39:29.881Z,42.61
2022-08-30T03:40:29.879Z,43.23
2022-08-30T03:41:29.780Z,42.71
2022-08-30T03:42:29.765Z,43.32
2022-08-30T03:43:29.756Z,43.32
2022-08-30T03:44:29.817Z,43.02
2022-08-30T03:45:29.779Z,42.82
2022-08-30T03:46:29.723Z,42.82
2022-08-30T03:47:29.714Z,42.51
2022-08-30T03:48:29.703Z,42.71
2022-08-30T03:49:29.691Z,42.61
2022-08-30T03:50:29.678Z,43.43
2022-08-30T03:51:29.667Z,42.71
2022-08-30T03:52:29.656Z,42.82
2022-08-30T03:53:29.647Z,42.41
2022-08-30T03:54:29.635Z,42.41
2022-08-30T03:55:29.623Z,42.21
2022-08-30T03:56:29.612Z,42.41
2022-08-30T03:57:29.600Z,42.71
2022-08-30T03:58:29.590Z,42.71
2022-08-30T03:59:29.579Z,42.82
2022-08-30T04:00:29.588Z,42.71
2022-08-30T04:01:29.635Z,44.34
2022-08-30T04:02:29.580Z,42.73
2022-08-30T04:03:29.551Z,43.04
2022-08-30T04:04:29.549Z,43.14
2022-08-30T04:05:29.518Z,43.14
2022-08-30T04:06:29.502Z,43.04
2022-08-30T04:07:29.491Z,43.24
2022-08-30T04:08:29.477Z,43.04
2022-08-30T04:09:29.469Z,42.94
2022-08-30T04:10:29.454Z,44.87
2022-08-30T04:11:29.445Z,43.75
2022-08-30T04:12:29.433Z,43.55
2022-08-30T04:13:29.424Z,43.75
2022-08-30T04:14:29.411Z,44.57
2022-08-30T04:15:29.403Z,44.16
2022-08-30T04:16:29.468Z,44.46
2022-08-30T04:17:29.381Z,44.37
2022-08-30T04:18:29.365Z,43.88
2022-08-30T04:19:29.356Z,43.77
2022-08-30T04:20:29.349Z,43.85
2022-08-30T04:21:29.334Z,43.44
2022-08-30T04:22:29.321Z,43.35
2022-08-30T04:23:29.312Z,42.83
2022-08-30T04:24:29.306Z,43.14
2022-08-30T04:25:29.289Z,43.04
2022-08-30T04:26:29.640Z,43.35
2022-08-30T04:27:29.268Z,43.44
2022-08-30T04:28:29.259Z,43.24
2022-08-30T04:29:29.247Z,44.46
2022-08-30T04:30:29.234Z,43.24
2022-08-30T04:31:29.247Z,44.57
2022-08-30T04:32:29.213Z,43.88
2022-08-30T04:33:29.201Z,43.44
2022-08-30T04:34:32.160Z,43.04
2022-08-30T04:35:29.179Z,43.24
2022-08-30T04:36:29.167Z,43.35
2022-08-30T04:37:29.199Z,44.37
2022-08-30T04:38:30.546Z,45.08
2022-08-30T04:39:29.134Z,44.06
2022-08-30T04:40:29.161Z,44.78
2022-08-30T04:41:29.111Z,45.81
2022-08-30T04:42:29.103Z,44.16
2022-08-30T04:43:29.139Z,44.26
2022-08-30T04:44:29.103Z,43.96
2022-08-30T04:45:29.153Z,44.26
2022-08-30T04:46:29.057Z,43.96
2022-08-30T04:47:29.043Z,43.85
2022-08-30T04:48:29.036Z,43.96
2022-08-30T04:49:29.022Z,44.16
2022-08-30T04:50:29.013Z,44.26
2022-08-30T04:51:28.998Z,43.75
2022-08-30T04:52:28.987Z,44.16
2022-08-30T04:53:28.982Z,44.26
2022-08-30T04:54:28.967Z,43.85
2022-08-30T04:55:28.955Z,43.75
2022-08-30T04:56:28.951Z,43.73
2022-08-30T04:57:29.259Z,43.53
2022-08-30T04:58:28.948Z,44.04
2022-08-30T04:59:28.909Z,44.34
2022-08-30T05:00:28.901Z,44.85
2022-08-30T05:01:29.016Z,45.47
2022-08-30T05:02:28.965Z,45.75
2022-08-30T05:03:28.863Z,46.15
2022-08-30T05:04:28.855Z,46.26
2022-08-30T05:05:28.842Z,46.26
2022-08-30T05:06:28.831Z,46.67
2022-08-30T05:07:28.823Z,47.89
2022-08-30T05:08:28.810Z,47.17
2022-08-30T05:09:28.803Z,47.69
2022-08-30T05:10:28.838Z,47.46
2022-08-30T05:11:28.786Z,47.46
2022-08-30T05:12:28.771Z,47.77
2022-08-30T05:13:35.176Z,47.66
2022-08-30T05:14:29.771Z,47.56
2022-08-30T05:15:28.735Z,48.15
2022-08-30T05:16:28.794Z,48.46
2022-08-30T05:17:28.710Z,49.48
2022-08-30T05:18:28.699Z,50.70
2022-08-30T05:19:28.688Z,52.50
2022-08-30T05:20:28.679Z,52.40
2022-08-30T05:21:28.669Z,55.55
2022-08-30T05:22:28.666Z,57.69
2022-08-30T05:23:28.665Z,57.56
2022-08-30T05:24:28.640Z,57.97
2022-08-30T05:25:28.623Z,59.19
2022-08-30T05:26:28.611Z,61.51
2022-08-30T05:27:28.598Z,60.69
2022-08-30T05:28:28.590Z,60.38
2022-08-30T05:29:28.578Z,59.67
2022-08-30T05:30:28.578Z,60.36
2022-08-30T05:31:28.662Z,63.20
2022-08-30T05:32:28.547Z,64.62
2022-08-30T05:33:28.533Z,65.23
2022-08-30T05:34:28.525Z,67.06
2022-08-30T05:35:28.531Z,65.03
2022-08-30T05:36:28.512Z,69.91
2022-08-30T05:37:28.490Z,67.84
2022-08-30T05:38:28.479Z,65.00
2022-08-30T05:39:28.466Z,65.91
2022-08-30T05:40:29.578Z,68.96
2022-08-30T05:41:28.442Z,68.86
2022-08-30T05:42:28.436Z,67.94
2022-08-30T05:43:28.892Z,72.82
2022-08-30T05:44:28.415Z,72.41
2022-08-30T05:45:28.402Z,71.26
2022-08-30T05:46:28.495Z,70.55
2022-08-30T05:47:28.391Z,71.16
2022-08-30T05:48:28.376Z,71.47
2022-08-30T05:49:28.358Z,71.57
2022-08-30T05:50:28.347Z,70.55
2022-08-30T05:51:28.335Z,73.19
2022-08-30T05:52:28.327Z,74.71
2022-08-30T05:53:28.315Z,75.73
2022-08-30T05:54:28.306Z,74.31
2022-08-30T05:55:28.298Z,72.55
2022-08-30T05:56:28.286Z,72.25
2022-08-30T05:57:28.273Z,73.77
2022-08-30T05:58:28.278Z,73.46
2022-08-30T05:59:28.348Z,72.34
2022-08-30T06:00:28.314Z,73.16
2022-08-30T06:01:28.352Z,73.57
2022-08-30T06:02:28.220Z,75.79
2022-08-30T06:03:28.210Z,76.10
2022-08-30T06:04:28.197Z,76.00
2022-08-30T06:05:28.183Z,74.58
2022-08-30T06:06:28.175Z,73.33
2022-08-30T06:07:28.161Z,74.54
2022-08-30T06:08:28.154Z,75.46
2022-08-30T06:09:28.158Z,77.28
2022-08-30T06:10:28.207Z,77.59
2022-08-30T06:11:28.118Z,78.80
2022-08-30T06:12:28.109Z,78.50
2022-08-30T06:13:28.102Z,77.69
2022-08-30T06:14:28.088Z,78.09
2022-08-30T06:15:28.075Z,76.78
2022-08-30T06:16:28.210Z,77.69
2022-08-30T06:17:28.053Z,78.09
2022-08-30T06:18:28.655Z,80.12
2022-08-30T06:19:28.030Z,78.97
2022-08-30T06:20:28.022Z,79.31
2022-08-30T06:21:28.112Z,79.07
2022-08-30T06:22:28.008Z,80.49
2022-08-30T06:23:27.986Z,81.10
2022-08-30T06:24:53.766Z,80.39
2022-08-30T06:25:28.989Z,81.20
2022-08-30T06:26:28.033Z,79.88
2022-08-30T06:27:27.941Z,80.49
2022-08-30T06:28:27.933Z,81.10
2022-08-30T06:29:27.919Z,80.19
2022-08-30T06:30:27.910Z,80.90
2022-08-30T06:31:27.968Z,80.39
2022-08-30T06:32:27.913Z,81.50
2022-08-30T06:33:27.872Z,81.30
2022-08-30T06:34:27.862Z,81.77
2022-08-30T06:35:27.851Z,81.57
2022-08-30T06:36:27.840Z,81.67
2022-08-30T06:37:29.657Z,81.87
2022-08-30T06:38:27.823Z,83.29
2022-08-30T06:39:27.808Z,80.96
2022-08-30T06:40:27.937Z,82.07
2022-08-30T06:41:27.781Z,83.29
2022-08-30T06:42:27.772Z,82.75
2022-08-30T06:43:27.780Z,83.76
2022-08-30T06:44:27.849Z,83.55
2022-08-30T06:45:27.736Z,84.77
2022-08-30T06:46:27.791Z,83.86
2022-08-30T06:47:27.723Z,83.15
2022-08-30T06:48:27.710Z,83.45
2022-08-30T06:49:27.700Z,85.17
2022-08-30T06:50:27.688Z,85.07
2022-08-30T06:51:27.670Z,86.29
2022-08-30T06:52:27.662Z,84.87
2022-08-30T06:53:27.658Z,84.73
2022-08-30T06:54:27.639Z,83.61
2022-08-30T06:55:27.735Z,85.58
2022-08-30T06:56:27.795Z,84.33
2022-08-30T06:57:27.607Z,85.24
2022-08-30T06:58:27.595Z,85.74
2022-08-30T06:59:27.592Z,86.25
2022-08-30T07:00:27.577Z,86.15
2022-08-30T07:01:27.610Z,86.15
2022-08-30T07:02:27.590Z,86.55
2022-08-30T07:03:27.544Z,86.35
2022-08-30T07:04:27.534Z,85.70
2022-08-30T07:05:27.550Z,87.02
2022-08-30T07:06:27.616Z,86.71
2022-08-30T07:07:27.495Z,86.51
2022-08-30T07:08:27.485Z,87.12
2022-08-30T07:09:27.507Z,86.21
2022-08-30T07:10:27.468Z,86.00
2022-08-30T07:11:28.477Z,86.71
2022-08-30T07:12:27.445Z,86.31
2022-08-30T07:13:27.431Z,86.10
2022-08-30T07:14:27.421Z,86.57
2022-08-30T07:15:27.413Z,85.46
2022-08-30T07:16:27.401Z,87.88
2022-08-30T07:17:30.168Z,86.47
2022-08-30T07:18:28.405Z,87.58
2022-08-30T07:19:27.366Z,87.58
2022-08-30T07:20:27.368Z,87.54
2022-08-30T07:21:27.346Z,87.24
2022-08-30T07:22:27.334Z,87.13
2022-08-30T07:23:27.320Z,87.24
2022-08-30T07:24:27.312Z,87.13
2022-08-30T07:25:27.301Z,87.54
2022-08-30T07:26:27.290Z,87.13
2022-08-30T07:27:27.281Z,88.15
2022-08-30T07:28:27.352Z,88.04
2022-08-30T07:29:27.255Z,88.25
2022-08-30T07:30:27.246Z,87.95
2022-08-30T07:31:27.232Z,86.73
2022-08-30T07:32:27.227Z,87.74
2022-08-30T07:33:27.212Z,88.25
2022-08-30T07:34:27.562Z,87.64
2022-08-30T07:35:27.189Z,88.45
2022-08-30T07:36:27.181Z,88.31
2022-08-30T07:37:27.165Z,88.61
2022-08-30T07:38:27.156Z,88.61
2022-08-30T07:39:27.176Z,89.22
2022-08-30T07:40:27.186Z,88.81
2022-08-30T07:41:27.120Z,88.81
2022-08-30T07:42:27.116Z,88.51
2022-08-30T07:43:27.107Z,88.41
2022-08-30T07:44:27.091Z,88.71
2022-08-30T07:45:27.081Z,88.77
2022-08-30T07:46:27.083Z,88.93
2022-08-30T07:47:27.060Z,89.54
2022-08-30T07:48:27.058Z,89.79
2022-08-30T07:49:27.040Z,90.26
2022-08-30T07:50:27.032Z,90.20
2022-08-30T07:51:27.019Z,89.90
2022-08-30T07:52:27.047Z,90.30
2022-08-30T07:53:26.996Z,89.74
2022-08-30T07:54:26.985Z,89.54
2022-08-30T07:55:26.974Z,89.43
2022-08-30T07:56:26.967Z,89.03
2022-08-30T07:57:26.953Z,88.73
2022-08-30T07:58:26.952Z,88.53
2022-08-30T07:59:26.929Z,89.29
2022-08-30T08:00:26.920Z,89.91
2022-08-30T08:01:27.019Z,90.72
2022-08-30T08:02:26.969Z,90.58
2022-08-30T08:03:26.888Z,91.08
2022-08-30T08:04:26.879Z,91.18
2022-08-30T08:05:26.862Z,91.34
2022-08-30T08:06:26.891Z,91.86
2022-08-30T08:07:26.943Z,91.91
2022-08-30T08:08:26.832Z,92.32
2022-08-30T08:09:26.824Z,92.27
2022-08-30T08:10:26.811Z,92.37
2022-08-30T08:11:30.400Z,92.61
2022-08-30T08:12:26.789Z,92.72
2022-08-30T08:13:27.975Z,92.32
2022-08-30T08:14:26.767Z,92.22
2022-08-30T08:15:26.752Z,92.63
2022-08-30T08:16:26.746Z,92.44
2022-08-30T08:17:26.732Z,92.15
2022-08-30T08:18:26.989Z,91.01
2022-08-30T08:19:26.709Z,91.31
2022-08-30T08:20:26.702Z,90.06
2022-08-30T08:21:26.688Z,89.72
2022-08-30T08:22:26.681Z,87.77
2022-08-30T08:23:26.673Z,88.71
2022-08-30T08:24:26.659Z,89.96
2022-08-30T08:25:26.647Z,88.62
2022-08-30T08:26:26.636Z,87.03
2022-08-30T08:27:26.630Z,85.03
2022-08-30T08:28:26.614Z,84.23
2022-08-30T08:29:26.604Z,82.89
2022-08-30T08:30:26.592Z,82.75
2022-08-30T08:31:28.879Z,80.26
2022-08-30T08:32:26.573Z,79.02
2022-08-30T08:33:26.561Z,75.05
2022-08-30T08:34:26.552Z,74.55
2022-08-30T08:35:26.538Z,74.88
2022-08-30T08:36:26.535Z,75.28
2022-08-30T08:37:27.765Z,77.66
2022-08-30T08:38:26.510Z,76.72
2022-08-30T08:39:26.496Z,77.18
2022-08-30T08:40:26.524Z,76.48
2022-08-30T08:41:26.495Z,74.41
2022-08-30T08:42:26.494Z,73.38
2022-08-30T08:43:26.522Z,69.20
2022-08-30T08:44:29.261Z,70.75
2022-08-30T08:45:26.525Z,69.13
2022-08-30T08:46:26.553Z,69.79
2022-08-30T08:47:26.470Z,70.56
2022-08-30T08:48:28.932Z,68.93
2022-08-30T08:49:26.403Z,66.80
2022-08-30T08:50:26.395Z,64.25
2022-08-30T08:51:26.468Z,61.47
2022-08-30T08:52:26.436Z,63.26
2022-08-30T08:53:46.686Z,61.34
2022-08-30T08:54:26.413Z,62.76
2022-08-30T08:55:26.324Z,61.74
2022-08-30T08:56:26.313Z,62.16
2022-08-30T08:57:26.305Z,62.26
2022-08-30T08:58:26.296Z,62.79
2022-08-30T08:59:26.284Z,63.46
2022-08-30T09:00:26.272Z,65.68
2022-08-30T09:01:26.369Z,64.06
2022-08-30T09:02:26.251Z,64.01
2022-08-30T09:03:26.244Z,68.90
2022-08-30T09:04:26.233Z,73.35
2022-08-30T09:05:26.319Z,72.68
2022-08-30T09:06:26.296Z,70.86
2022-08-30T09:07:26.204Z,68.37
2022-08-30T09:08:26.192Z,64.75
2022-08-30T09:09:26.182Z,63.20
2022-08-30T09:10:47.002Z,61.38
2022-08-30T09:11:27.231Z,60.46
2022-08-30T09:12:26.153Z,59.83
2022-08-30T09:13:26.139Z,58.87
2022-08-30T09:14:30.107Z,60.16
2022-08-30T09:15:26.185Z,59.79
2022-08-30T09:16:26.231Z,60.49
2022-08-30T09:17:26.166Z,61.18
2022-08-30T09:18:26.091Z,62.01
2022-08-30T09:19:26.079Z,61.15
2022-08-30T09:20:26.068Z,59.80
2022-08-30T09:21:26.057Z,57.44
2022-08-30T09:22:26.047Z,55.36
2022-08-30T09:23:26.037Z,55.85
2022-08-30T09:24:26.223Z,55.30
2022-08-30T09:25:26.014Z,54.64
2022-08-30T09:26:26.004Z,57.65
2022-08-30T09:27:25.993Z,59.66
2022-08-30T09:28:25.979Z,59.14
2022-08-30T09:29:25.981Z,59.93
2022-08-30T09:30:25.961Z,57.54
2022-08-30T09:31:26.004Z,54.88
2022-08-30T09:32:25.964Z,53.47
2022-08-30T09:33:25.936Z,53.67
2022-08-30T09:34:25.923Z,55.77
2022-08-30T09:35:25.963Z,54.32
2022-08-30T09:36:25.904Z,55.96
2022-08-30T09:37:25.897Z,56.21
2022-08-30T09:38:25.977Z,56.43
2022-08-30T09:39:27.709Z,56.11
2022-08-30T09:40:26.048Z,56.70
2022-08-30T09:41:25.847Z,56.15
2022-08-30T09:42:25.835Z,55.73
2022-08-30T09:43:25.883Z,54.22
2022-08-30T09:44:25.821Z,55.16
2022-08-30T09:45:27.855Z,53.80
2022-08-30T09:46:25.826Z,55.76
2022-08-30T09:47:25.853Z,56.34
2022-08-30T09:48:25.777Z,59.89
2022-08-30T09:49:25.768Z,62.26
2022-08-30T09:50:25.756Z,64.98
2022-08-30T09:51:26.419Z,65.58
2022-08-30T09:52:25.736Z,60.98
2022-08-30T09:53:25.725Z,59.34
2022-08-30T09:54:25.715Z,58.29
2022-08-30T09:55:25.709Z,59.04
2022-08-30T09:56:25.695Z,60.58
2022-08-30T09:57:34.122Z,61.18
2022-08-30T09:58:29.790Z,62.37
2022-08-30T09:59:25.663Z,63.06
2022-08-30T10:00:25.650Z,66.01
2022-08-30T10:01:25.697Z,67.00
2022-08-30T10:02:25.665Z,68.73
2022-08-30T10:03:35.730Z,72.49
2022-08-30T10:04:30.861Z,73.68
2022-08-30T10:05:25.604Z,73.28
2022-08-30T10:06:25.590Z,72.65
2022-08-30T10:07:29.063Z,67.67
2022-08-30T10:08:25.959Z,62.97
2022-08-30T10:09:25.564Z,61.05
2022-08-30T10:10:25.546Z,58.09
2022-08-30T10:11:25.540Z,54.86
2022-08-30T10:12:25.530Z,54.39
2022-08-30T10:13:25.517Z,52.36
2022-08-30T10:14:25.530Z,51.25
2022-08-30T10:15:25.571Z,53.88
2022-08-30T10:16:25.485Z,56.76
2022-08-30T10:17:26.991Z,59.92
2022-08-30T10:18:25.464Z,62.04
2022-08-30T10:19:25.456Z,64.58
2022-08-30T10:20:25.443Z,65.48
2022-08-30T10:21:25.433Z,66.27
2022-08-30T10:22:25.427Z,64.58
2022-08-30T10:23:25.416Z,62.27
2022-08-30T10:24:25.815Z,57.99
2022-08-30T10:25:25.456Z,55.46
2022-08-30T10:26:25.433Z,57.23
2022-08-30T10:27:25.371Z,54.44
2022-08-30T10:28:25.359Z,55.09
2022-08-30T10:29:25.352Z,57.28
2022-08-30T10:30:25.339Z,59.82
2022-08-30T10:31:25.334Z,61.34
2022-08-30T10:32:25.322Z,62.49
2022-08-30T10:33:25.389Z,60.71
2022-08-30T10:34:25.325Z,58.67
2022-08-30T10:35:25.317Z,58.87
2022-08-30T10:36:25.354Z,59.17
2022-08-30T10:37:25.423Z,59.89
2022-08-30T10:38:25.459Z,62.96
2022-08-30T10:39:25.348Z,64.81
2022-08-30T10:40:26.194Z,67.33
2022-08-30T10:41:25.368Z,68.73
2022-08-30T10:42:25.259Z,67.93
2022-08-30T10:43:25.206Z,67.93
2022-08-30T10:44:25.195Z,67.93
2022-08-30T10:45:25.189Z,68.33
2022-08-30T10:46:25.176Z,68.53
2022-08-30T10:47:25.163Z,69.39
2022-08-30T10:48:25.155Z,66.71
2022-08-30T10:49:25.174Z,66.71
2022-08-30T10:50:25.129Z,66.61
2022-08-30T10:51:25.120Z,67.40
2022-08-30T10:52:25.502Z,67.00
2022-08-30T10:53:25.100Z,67.10
2022-08-30T10:54:25.088Z,65.22
2022-08-30T10:55:25.082Z,59.23
2022-08-30T10:56:25.067Z,57.32
2022-08-30T10:57:25.056Z,54.94
2022-08-30T10:58:25.043Z,54.37
2022-08-30T10:59:25.035Z,54.47
2022-08-30T11:00:25.031Z,55.91
2022-08-30T11:01:28.424Z,57.13
2022-08-30T11:02:25.001Z,57.32
2022-08-30T11:03:24.992Z,58.57
2022-08-30T11:04:24.981Z,59.49
2022-08-30T11:05:25.271Z,60.39
2022-08-30T11:06:24.959Z,60.58
2022-08-30T11:07:24.949Z,60.69
2022-08-30T11:08:24.940Z,63.89
2022-08-30T11:09:24.937Z,61.98
2022-08-30T11:10:24.918Z,58.12
2022-08-30T11:11:24.912Z,56.07
2022-08-30T11:12:24.897Z,52.17
2022-08-30T11:13:24.922Z,51.13
2022-08-30T11:14:25.501Z,50.07
2022-08-30T11:15:24.870Z,47.63
2022-08-30T11:16:24.856Z,46.65
2022-08-30T11:17:24.848Z,46.33
2022-08-30T11:18:24.839Z,46.50
2022-08-30T11:19:24.827Z,45.70
2022-08-30T11:20:24.816Z,46.43
2022-08-30T11:21:24.813Z,48.34
2022-08-30T11:22:24.794Z,50.14
2022-08-30T11:23:24.887Z,49.79
2022-08-30T11:24:24.772Z,48.91
2022-08-30T11:25:24.766Z,48.46
2022-08-30T11:26:24.767Z,50.48
2022-08-30T11:27:24.770Z,50.19
2022-08-30T11:28:24.915Z,50.90
2022-08-30T11:29:24.723Z,52.29
2022-08-30T11:30:26.933Z,54.55
2022-08-30T11:31:24.707Z,54.64
2022-08-30T11:32:24.710Z,54.62
2022-08-30T11:33:24.681Z,53.25
2022-08-30T11:34:24.670Z,52.54
2022-08-30T11:35:24.664Z,51.87
2022-08-30T11:36:24.651Z,52.46
2022-08-30T11:37:24.642Z,53.35
2022-08-30T11:38:24.639Z,53.31
2022-08-30T11:39:24.646Z,53.83
2022-08-30T11:40:24.711Z,54.62
2022-08-30T11:41:24.603Z,54.72
2022-08-30T11:42:24.611Z,54.39
2022-08-30T11:43:24.582Z,53.28
2022-08-30T11:44:24.570Z,50.56
2022-08-30T11:45:25.026Z,51.79
2022-08-30T11:46:24.609Z,51.70
2022-08-30T11:47:24.537Z,52.34
2022-08-30T11:48:24.574Z,52.64
2022-08-30T11:49:25.155Z,52.34
2022-08-30T11:50:24.538Z,51.45
2022-08-30T11:51:24.520Z,52.24
2022-08-30T11:52:27.231Z,51.52
2022-08-30T11:53:24.480Z,51.84
2022-08-30T11:54:24.466Z,50.04
2022-08-30T11:55:24.464Z,47.56
2022-08-30T11:56:24.445Z,45.60
2022-08-30T11:57:24.439Z,44.22
2022-08-30T11:58:24.451Z,44.10
2022-08-30T11:59:24.418Z,42.79
2022-08-30T12:00:24.409Z,44.58
2022-08-30T12:01:52.215Z,47.89
2022-08-30T12:02:25.574Z,49.66
2022-08-30T12:03:24.818Z,52.56
2022-08-30T12:04:24.366Z,55.27
2022-08-30T12:05:24.356Z,55.19
2022-08-30T12:06:24.353Z,56.02
2022-08-30T12:07:24.333Z,56.81
2022-08-30T12:08:28.024Z,57.01
2022-08-30T12:09:24.313Z,56.51
2022-08-30T12:10:24.302Z,56.94
2022-08-30T12:11:24.292Z,57.31
2022-08-30T12:12:24.279Z,57.21
2022-08-30T12:13:24.277Z,56.19
2022-08-30T12:14:24.280Z,55.29
2022-08-30T12:15:24.288Z,55.52
2022-08-30T12:16:24.288Z,55.52
2022-08-30T12:17:24.232Z,56.32
2022-08-30T12:18:24.218Z,56.61
2022-08-30T12:19:24.208Z,56.32
2022-08-30T12:20:24.199Z,56.09
2022-08-30T12:21:24.188Z,56.88
2022-08-30T12:22:24.175Z,55.99
2022-08-30T12:23:24.164Z,54.13
2022-08-30T12:24:24.152Z,53.80
2022-08-30T12:25:24.175Z,52.01
2022-08-30T12:26:25.101Z,48.66
2022-08-30T12:27:24.127Z,47.96
2022-08-30T12:28:24.126Z,50.09
2022-08-30T12:29:24.483Z,48.19
2022-08-30T12:30:24.089Z,46.22
2022-08-30T12:31:24.144Z,44.96
2022-08-30T12:32:24.068Z,43.93
2022-08-30T12:33:24.062Z,43.74
2022-08-30T12:34:24.607Z,43.89
2022-08-30T12:35:24.039Z,42.77
2022-08-30T12:36:24.026Z,42.47
2022-08-30T12:37:24.076Z,43.04
2022-08-30T12:38:27.456Z,42.21
2022-08-30T12:39:23.996Z,41.17
2022-08-30T12:40:24.057Z,40.06
2022-08-30T12:41:23.982Z,41.53
2022-08-30T12:42:23.966Z,41.51
2022-08-30T12:43:23.959Z,42.11
2022-08-30T12:44:23.948Z,42.08
2022-08-30T12:45:23.997Z,43.91
2022-08-30T12:46:23.971Z,44.23
2022-08-30T12:47:23.920Z,45.79
2022-08-30T12:48:23.906Z,47.13
2022-08-30T12:49:23.925Z,47.30
2022-08-30T12:50:24.058Z,46.93
2022-08-30T12:51:23.876Z,47.34
2022-08-30T12:52:23.868Z,46.39